Ana Sayfa
METAR-TAF:

METAR-TAF

Havaalanları :

Fayette Regional Air Center

La Grange, Teksas, Amerika Birleşik Devletleri

Enlem: 29-54-29N, Boylam: 096-57-00W, yükseklik: 99 m

Güncel hava durumu gözlemi

Rapor saat 07:15 UTC de 23 dakika önce yapıldı.
Rüzgar güney/güneybatıdan 5 kt
Sıcaklık 12°C
Nem 58%
Basınç 1026 hPa
Görüş mesafesi: 16.1 km
Açık gökyüzü

METAR: K3T5 290715Z AUTO 21005KT 10SM CLR 12/04 A3030 RMK AO2 T01150042

Saat: 01:38 (07:38 UTC)


TAF: eksik

4.000'den fazla havaalanı için hava durumu gözlemleri ve tahminleri (METAR ve TAF raporları).

Kullanılabilir istasyonlar harita üzerinde sarı ve kırmızı noktalarla gösterilir.

İstasyonun adını görmek için fareyi noktanın üzerinde gezdirin.

Sonrasında hava gözlem ve tahminlerini görmek için tıklayın.

Haritayı değiştirmek için: yaklaştırmak için siyah artı işaretli yeşil düğmeye ve uzaklaştırmak için de eksi işaretli düğmeye hızla tıklayın; bitişik haritalar için yeşil okları kullanın.


METAR-TAF: